Lancaster, KS (66041)

1:26 AM CDT on July 27, 2016 (GMT -0500)
MesoWest | | Change Station

Elev 1133 ft 39.57 °N, 95.29 °W | Updated 1 hour ago

Clear
Clear
76.0 °F
Feels Like 76.0 °F
N
0.0
Wind Variable Wind from North
Gusts 0.0 mph

Today
High -- | Low -- °F
--% Chance of Precip.
Yesterday
High -- | Low -- °F
Precip. -- in
Pressure 29.98 in
Visibility 10.0 miles
Clouds Clear
Dew Point Not available.
Humidity Not available.
Rainfall in
Snow Depth Not available.
6:16 AM 8:38 PM
Waning Gibbous, 46% visible
METAR KSTJ 270553Z AUTO 03004KT 10SM CLR 20/18 A3000 RMK AO2 SLP151 T02000183 10294 20200 403170178 50003
Pressure 29.98 in
Visibility 10.0 miles
Clouds Clear
Dew Point Not available.
Humidity Not available.
Rainfall in
Snow Depth Not available.
6:16 AM 8:38 PM
Waning Gibbous, 46% visible
METAR KSTJ 270553Z AUTO 03004KT 10SM CLR 20/18 A3000 RMK AO2 SLP151 T02000183 10294 20200 403170178 50003

10-Day Weather Forecast

Almanac

Astronomy

Jul. 27, 2016 Rise Set
Actual Time
Civil Twilight
Nautical Twilight
Astronomical Twilight
Moon
Length of Visible Light
Length of Day
Tomorrow will be .
, % of the Moon is Illuminated

Today's Extremes

State Highs State Lows

Community

WunderPhotos

Upload Photos

1,927,818 photos uploaded!

WunderBlog® & News

Nearby

Air Quality

  Air Quality AQ Index Pollutant
Not available.

Snow Depth

Station Depth Elevation

Earthquake Activity

City Distance Mag. Time & Date
Minimum magnitude displayed is 2.5.

Coastal Water Temperatures

Place Temperature

Stations

Nearby Weather Stations

Station Location Temp. Windchill Dew Point Humidity Wind Precip. Elev Updated Type
                   

Watches & Warnings

There are currently no watches in effect.